sensor_id;sensor_type;location;lat;lon;timestamp;P1;durP1;ratioP1;P2;durP2;ratioP2
47545;SDS011;50104;52.002;4.688;2024-01-30T00:04:08;21.83;;;15.43;;
47545;SDS011;50104;52.002;4.688;2024-01-30T00:09:09;23.45;;;15.32;;
47545;SDS011;50104;52.002;4.688;2024-01-30T00:14:12;20.88;;;14.45;;
47545;SDS011;50104;52.002;4.688;2024-01-30T00:19:14;20.92;;;15.30;;
47545;SDS011;50104;52.002;4.688;2024-01-30T00:24:14;23.15;;;14.88;;
47545;SDS011;50104;52.002;4.688;2024-01-30T00:29:15;24.17;;;14.70;;
47545;SDS011;50104;52.002;4.688;2024-01-30T00:34:19;24.13;;;15.38;;
47545;SDS011;50104;52.002;4.688;2024-01-30T00:39:20;21.67;;;14.07;;
47545;SDS011;50104;52.002;4.688;2024-01-30T00:44:21;23.30;;;14.32;;
47545;SDS011;50104;52.002;4.688;2024-01-30T00:49:21;20.35;;;13.95;;
47545;SDS011;50104;52.002;4.688;2024-01-30T00:54:22;20.33;;;13.95;;
47545;SDS011;50104;52.002;4.688;2024-01-30T00:59:23;20.77;;;13.75;;
47545;SDS011;50104;52.002;4.688;2024-01-30T01:04:24;24.05;;;13.98;;
47545;SDS011;50104;52.002;4.688;2024-01-30T01:09:25;27.17;;;14.13;;
47545;SDS011;50104;52.002;4.688;2024-01-30T01:14:26;20.50;;;13.13;;
47545;SDS011;50104;52.002;4.688;2024-01-30T01:19:27;23.02;;;13.18;;
47545;SDS011;50104;52.002;4.688;2024-01-30T01:24:28;21.15;;;14.50;;
47545;SDS011;50104;52.002;4.688;2024-01-30T01:29:31;21.40;;;12.63;;
47545;SDS011;50104;52.002;4.688;2024-01-30T01:34:32;22.52;;;13.05;;
47545;SDS011;50104;52.002;4.688;2024-01-30T01:39:33;22.02;;;13.15;;
47545;SDS011;50104;52.002;4.688;2024-01-30T01:44:33;23.58;;;13.60;;
47545;SDS011;50104;52.002;4.688;2024-01-30T01:49:35;24.88;;;13.52;;
47545;SDS011;50104;52.002;4.688;2024-01-30T01:54:36;21.85;;;12.48;;
47545;SDS011;50104;52.002;4.688;2024-01-30T01:59:37;18.70;;;12.90;;
47545;SDS011;50104;52.002;4.688;2024-01-30T02:04:37;15.60;;;12.02;;
47545;SDS011;50104;52.002;4.688;2024-01-30T02:09:38;20.00;;;13.07;;
47545;SDS011;50104;52.002;4.688;2024-01-30T02:14:46;20.83;;;12.57;;
47545;SDS011;50104;52.002;4.688;2024-01-30T02:19:47;22.00;;;13.45;;
47545;SDS011;50104;52.002;4.688;2024-01-30T02:24:49;21.80;;;12.85;;
47545;SDS011;50104;52.002;4.688;2024-01-30T02:29:50;19.73;;;12.20;;
47545;SDS011;50104;52.002;4.688;2024-01-30T02:34:51;19.58;;;13.20;;
47545;SDS011;50104;52.002;4.688;2024-01-30T02:39:52;23.48;;;12.95;;
47545;SDS011;50104;52.002;4.688;2024-01-30T02:44:52;20.17;;;13.02;;
47545;SDS011;50104;52.002;4.688;2024-01-30T02:49:53;19.38;;;12.35;;
47545;SDS011;50104;52.002;4.688;2024-01-30T02:54:54;19.27;;;12.18;;
47545;SDS011;50104;52.002;4.688;2024-01-30T02:59:55;22.88;;;12.95;;
47545;SDS011;50104;52.002;4.688;2024-01-30T03:04:56;18.08;;;12.13;;
47545;SDS011;50104;52.002;4.688;2024-01-30T03:09:57;20.15;;;12.90;;
47545;SDS011;50104;52.002;4.688;2024-01-30T03:14:57;19.48;;;12.05;;
47545;SDS011;50104;52.002;4.688;2024-01-30T03:19:58;17.83;;;12.90;;
47545;SDS011;50104;52.002;4.688;2024-01-30T03:24:59;18.75;;;12.25;;
47545;SDS011;50104;52.002;4.688;2024-01-30T03:30:00;19.42;;;12.75;;
47545;SDS011;50104;52.002;4.688;2024-01-30T03:35:01;19.25;;;12.88;;
47545;SDS011;50104;52.002;4.688;2024-01-30T03:40:02;17.95;;;12.65;;
47545;SDS011;50104;52.002;4.688;2024-01-30T03:45:03;20.48;;;13.52;;
47545;SDS011;50104;52.002;4.688;2024-01-30T03:50:05;18.67;;;11.98;;
47545;SDS011;50104;52.002;4.688;2024-01-30T03:55:06;18.67;;;13.20;;
47545;SDS011;50104;52.002;4.688;2024-01-30T04:00:07;22.17;;;12.75;;
47545;SDS011;50104;52.002;4.688;2024-01-30T04:05:09;19.48;;;12.57;;
47545;SDS011;50104;52.002;4.688;2024-01-30T04:10:10;19.77;;;12.82;;
47545;SDS011;50104;52.002;4.688;2024-01-30T04:15:11;18.92;;;12.18;;
47545;SDS011;50104;52.002;4.688;2024-01-30T04:20:16;20.98;;;11.77;;
47545;SDS011;50104;52.002;4.688;2024-01-30T04:25:17;20.00;;;12.48;;
47545;SDS011;50104;52.002;4.688;2024-01-30T04:30:18;16.58;;;11.88;;
47545;SDS011;50104;52.002;4.688;2024-01-30T04:35:18;19.25;;;12.23;;
47545;SDS011;50104;52.002;4.688;2024-01-30T04:40:23;22.30;;;13.60;;
47545;SDS011;50104;52.002;4.688;2024-01-30T04:45:24;21.17;;;12.55;;
47545;SDS011;50104;52.002;4.688;2024-01-30T04:50:25;18.90;;;13.20;;
47545;SDS011;50104;52.002;4.688;2024-01-30T04:55:27;19.67;;;12.35;;
47545;SDS011;50104;52.002;4.688;2024-01-30T05:00:27;19.98;;;12.68;;
47545;SDS011;50104;52.002;4.688;2024-01-30T05:05:28;20.08;;;12.77;;
47545;SDS011;50104;52.002;4.688;2024-01-30T05:10:29;20.63;;;12.73;;
47545;SDS011;50104;52.002;4.688;2024-01-30T05:15:30;21.95;;;13.15;;
47545;SDS011;50104;52.002;4.688;2024-01-30T05:20:31;18.65;;;13.20;;
47545;SDS011;50104;52.002;4.688;2024-01-30T05:25:31;19.02;;;13.98;;
47545;SDS011;50104;52.002;4.688;2024-01-30T05:30:32;24.13;;;14.48;;
47545;SDS011;50104;52.002;4.688;2024-01-30T05:35:33;25.50;;;14.23;;
47545;SDS011;50104;52.002;4.688;2024-01-30T05:40:34;21.92;;;14.15;;
47545;SDS011;50104;52.002;4.688;2024-01-30T05:45:34;21.27;;;13.63;;
47545;SDS011;50104;52.002;4.688;2024-01-30T05:50:36;21.30;;;13.80;;
47545;SDS011;50104;52.002;4.688;2024-01-30T05:55:37;24.60;;;12.63;;
47545;SDS011;50104;52.002;4.688;2024-01-30T06:00:37;19.63;;;13.27;;
47545;SDS011;50104;52.002;4.688;2024-01-30T06:05:38;21.00;;;13.38;;
47545;SDS011;50104;52.002;4.688;2024-01-30T06:10:39;18.27;;;13.15;;
47545;SDS011;50104;52.002;4.688;2024-01-30T06:15:40;18.80;;;12.15;;
47545;SDS011;50104;52.002;4.688;2024-01-30T06:20:41;21.20;;;12.32;;
47545;SDS011;50104;52.002;4.688;2024-01-30T06:25:42;21.05;;;13.75;;
47545;SDS011;50104;52.002;4.688;2024-01-30T06:30:43;17.10;;;12.45;;
47545;SDS011;50104;52.002;4.688;2024-01-30T06:35:44;20.27;;;13.13;;
47545;SDS011;50104;52.002;4.688;2024-01-30T06:40:45;23.15;;;12.88;;
47545;SDS011;50104;52.002;4.688;2024-01-30T06:45:46;22.25;;;12.93;;
47545;SDS011;50104;52.002;4.688;2024-01-30T06:50:47;23.98;;;13.13;;
47545;SDS011;50104;52.002;4.688;2024-01-30T06:55:49;18.58;;;12.38;;
47545;SDS011;50104;52.002;4.688;2024-01-30T07:00:51;18.70;;;12.57;;
47545;SDS011;50104;52.002;4.688;2024-01-30T07:05:52;23.42;;;13.13;;
47545;SDS011;50104;52.002;4.688;2024-01-30T07:10:52;18.85;;;12.35;;
47545;SDS011;50104;52.002;4.688;2024-01-30T07:15:55;19.15;;;12.73;;
47545;SDS011;50104;52.002;4.688;2024-01-30T07:20:56;19.50;;;13.13;;
47545;SDS011;50104;52.002;4.688;2024-01-30T07:25:57;21.67;;;12.52;;
47545;SDS011;50104;52.002;4.688;2024-01-30T07:30:57;26.48;;;13.68;;
47545;SDS011;50104;52.002;4.688;2024-01-30T07:35:58;21.30;;;12.05;;
47545;SDS011;50104;52.002;4.688;2024-01-30T07:40:59;21.83;;;11.88;;
47545;SDS011;50104;52.002;4.688;2024-01-30T07:46:00;19.95;;;12.82;;
47545;SDS011;50104;52.002;4.688;2024-01-30T07:51:02;19.33;;;12.07;;
47545;SDS011;50104;52.002;4.688;2024-01-30T07:56:04;18.83;;;12.60;;
47545;SDS011;50104;52.002;4.688;2024-01-30T08:01:06;22.08;;;13.05;;
47545;SDS011;50104;52.002;4.688;2024-01-30T08:06:07;16.33;;;12.30;;
47545;SDS011;50104;52.002;4.688;2024-01-30T08:11:08;18.60;;;12.05;;
47545;SDS011;50104;52.002;4.688;2024-01-30T08:16:08;23.90;;;12.05;;
47545;SDS011;50104;52.002;4.688;2024-01-30T08:21:09;17.75;;;11.50;;
47545;SDS011;50104;52.002;4.688;2024-01-30T08:26:10;18.45;;;11.52;;
47545;SDS011;50104;52.002;4.688;2024-01-30T08:31:11;20.02;;;11.65;;
47545;SDS011;50104;52.002;4.688;2024-01-30T08:36:12;19.10;;;11.38;;
47545;SDS011;50104;52.002;4.688;2024-01-30T08:41:13;19.63;;;11.65;;
47545;SDS011;50104;52.002;4.688;2024-01-30T08:46:17;18.80;;;11.13;;
47545;SDS011;50104;52.002;4.688;2024-01-30T08:51:18;24.85;;;13.00;;
47545;SDS011;50104;52.002;4.688;2024-01-30T08:56:19;19.58;;;11.60;;
47545;SDS011;50104;52.002;4.688;2024-01-30T09:01:20;16.52;;;10.65;;
47545;SDS011;50104;52.002;4.688;2024-01-30T09:06:21;18.13;;;10.35;;
47545;SDS011;50104;52.002;4.688;2024-01-30T09:11:22;21.20;;;11.20;;
47545;SDS011;50104;52.002;4.688;2024-01-30T09:16:22;19.67;;;11.30;;
47545;SDS011;50104;52.002;4.688;2024-01-30T09:21:23;16.17;;;10.85;;
47545;SDS011;50104;52.002;4.688;2024-01-30T09:26:24;14.77;;;10.85;;
47545;SDS011;50104;52.002;4.688;2024-01-30T09:31:26;19.20;;;12.73;;
47545;SDS011;50104;52.002;4.688;2024-01-30T09:36:27;14.52;;;10.32;;
47545;SDS011;50104;52.002;4.688;2024-01-30T09:41:28;19.70;;;10.80;;
47545;SDS011;50104;52.002;4.688;2024-01-30T09:46:33;15.50;;;9.70;;
47545;SDS011;50104;52.002;4.688;2024-01-30T09:51:35;20.50;;;9.43;;
47545;SDS011;50104;52.002;4.688;2024-01-30T09:56:36;15.00;;;9.95;;
47545;SDS011;50104;52.002;4.688;2024-01-30T10:01:37;14.25;;;7.45;;
47545;SDS011;50104;52.002;4.688;2024-01-30T10:06:39;12.45;;;8.15;;
47545;SDS011;50104;52.002;4.688;2024-01-30T10:11:40;13.43;;;7.45;;
47545;SDS011;50104;52.002;4.688;2024-01-30T10:16:41;11.68;;;5.82;;
47545;SDS011;50104;52.002;4.688;2024-01-30T10:21:42;9.60;;;4.75;;
47545;SDS011;50104;52.002;4.688;2024-01-30T10:26:43;13.05;;;6.75;;
47545;SDS011;50104;52.002;4.688;2024-01-30T10:31:44;9.90;;;6.20;;
47545;SDS011;50104;52.002;4.688;2024-01-30T10:36:46;4.05;;;3.03;;
47545;SDS011;50104;52.002;4.688;2024-01-30T10:41:50;4.15;;;1.77;;
47545;SDS011;50104;52.002;4.688;2024-01-30T10:46:56;6.43;;;2.50;;
47545;SDS011;50104;52.002;4.688;2024-01-30T10:52:04;9.57;;;3.25;;
47545;SDS011;50104;52.002;4.688;2024-01-30T10:57:06;7.32;;;3.70;;
47545;SDS011;50104;52.002;4.688;2024-01-30T11:02:09;6.60;;;4.75;;
47545;SDS011;50104;52.002;4.688;2024-01-30T11:07:17;5.30;;;3.15;;
47545;SDS011;50104;52.002;4.688;2024-01-30T11:12:25;4.32;;;2.40;;
47545;SDS011;50104;52.002;4.688;2024-01-30T11:17:39;4.25;;;2.05;;
47545;SDS011;50104;52.002;4.688;2024-01-30T11:22:50;7.68;;;1.45;;
47545;SDS011;50104;52.002;4.688;2024-01-30T11:27:55;9.00;;;1.85;;
47545;SDS011;50104;52.002;4.688;2024-01-30T11:38:06;4.45;;;1.33;;
47545;SDS011;50104;52.002;4.688;2024-01-30T11:43:08;7.60;;;1.73;;
47545;SDS011;50104;52.002;4.688;2024-01-30T11:48:10;3.47;;;1.73;;
47545;SDS011;50104;52.002;4.688;2024-01-30T11:53:12;4.60;;;1.20;;
47545;SDS011;50104;52.002;4.688;2024-01-30T11:58:13;5.43;;;1.48;;
47545;SDS011;50104;52.002;4.688;2024-01-30T12:03:14;5.88;;;1.60;;
47545;SDS011;50104;52.002;4.688;2024-01-30T12:08:15;3.88;;;1.60;;
47545;SDS011;50104;52.002;4.688;2024-01-30T12:13:16;2.20;;;1.25;;
47545;SDS011;50104;52.002;4.688;2024-01-30T12:18:20;3.63;;;0.82;;
47545;SDS011;50104;52.002;4.688;2024-01-30T12:23:21;4.78;;;1.02;;
47545;SDS011;50104;52.002;4.688;2024-01-30T12:28:25;5.15;;;1.20;;
47545;SDS011;50104;52.002;4.688;2024-01-30T12:33:26;8.32;;;1.77;;
47545;SDS011;50104;52.002;4.688;2024-01-30T12:38:28;4.93;;;1.40;;
47545;SDS011;50104;52.002;4.688;2024-01-30T12:43:29;6.45;;;2.05;;
47545;SDS011;50104;52.002;4.688;2024-01-30T12:48:31;9.40;;;1.52;;
47545;SDS011;50104;52.002;4.688;2024-01-30T12:53:32;7.43;;;1.80;;
47545;SDS011;50104;52.002;4.688;2024-01-30T12:58:33;4.28;;;1.85;;
47545;SDS011;50104;52.002;4.688;2024-01-30T13:03:33;5.22;;;1.80;;
47545;SDS011;50104;52.002;4.688;2024-01-30T13:08:35;5.57;;;2.05;;
47545;SDS011;50104;52.002;4.688;2024-01-30T13:13:35;12.65;;;2.38;;
47545;SDS011;50104;52.002;4.688;2024-01-30T13:18:36;4.65;;;2.20;;
47545;SDS011;50104;52.002;4.688;2024-01-30T13:23:37;7.25;;;1.80;;
47545;SDS011;50104;52.002;4.688;2024-01-30T13:28:38;8.20;;;1.95;;
47545;SDS011;50104;52.002;4.688;2024-01-30T13:33:39;8.32;;;1.83;;
47545;SDS011;50104;52.002;4.688;2024-01-30T13:38:39;6.68;;;1.80;;
47545;SDS011;50104;52.002;4.688;2024-01-30T13:43:40;7.28;;;1.77;;
47545;SDS011;50104;52.002;4.688;2024-01-30T13:48:41;5.65;;;1.80;;
47545;SDS011;50104;52.002;4.688;2024-01-30T13:53:42;1.85;;;1.50;;
47545;SDS011;50104;52.002;4.688;2024-01-30T13:58:43;5.97;;;2.00;;
47545;SDS011;50104;52.002;4.688;2024-01-30T14:03:44;7.28;;;1.92;;
47545;SDS011;50104;52.002;4.688;2024-01-30T14:08:45;5.35;;;2.30;;
47545;SDS011;50104;52.002;4.688;2024-01-30T14:13:46;6.97;;;3.00;;
47545;SDS011;50104;52.002;4.688;2024-01-30T14:18:47;5.55;;;2.90;;
47545;SDS011;50104;52.002;4.688;2024-01-30T14:23:48;9.77;;;3.50;;
47545;SDS011;50104;52.002;4.688;2024-01-30T14:28:49;6.25;;;3.33;;
47545;SDS011;50104;52.002;4.688;2024-01-30T14:33:50;5.07;;;3.10;;
47545;SDS011;50104;52.002;4.688;2024-01-30T14:38:51;7.05;;;3.30;;
47545;SDS011;50104;52.002;4.688;2024-01-30T14:43:52;5.65;;;2.58;;
47545;SDS011;50104;52.002;4.688;2024-01-30T14:48:53;6.95;;;2.65;;
47545;SDS011;50104;52.002;4.688;2024-01-30T14:53:54;4.68;;;3.08;;
47545;SDS011;50104;52.002;4.688;2024-01-30T14:58:55;7.13;;;3.72;;
47545;SDS011;50104;52.002;4.688;2024-01-30T15:03:56;5.32;;;2.92;;
47545;SDS011;50104;52.002;4.688;2024-01-30T15:08:57;4.05;;;3.00;;
47545;SDS011;50104;52.002;4.688;2024-01-30T15:13:58;8.05;;;2.95;;
47545;SDS011;50104;52.002;4.688;2024-01-30T15:18:59;8.02;;;3.92;;
47545;SDS011;50104;52.002;4.688;2024-01-30T15:24:00;5.32;;;3.58;;
47545;SDS011;50104;52.002;4.688;2024-01-30T15:29:03;5.88;;;4.65;;
47545;SDS011;50104;52.002;4.688;2024-01-30T15:34:04;7.88;;;6.20;;
47545;SDS011;50104;52.002;4.688;2024-01-30T15:39:04;10.48;;;6.28;;
47545;SDS011;50104;52.002;4.688;2024-01-30T15:44:05;11.93;;;7.00;;
47545;SDS011;50104;52.002;4.688;2024-01-30T15:49:06;9.75;;;7.32;;
47545;SDS011;50104;52.002;4.688;2024-01-30T15:54:07;12.27;;;7.10;;
47545;SDS011;50104;52.002;4.688;2024-01-30T15:59:08;12.10;;;7.90;;
47545;SDS011;50104;52.002;4.688;2024-01-30T16:04:09;13.88;;;7.35;;
47545;SDS011;50104;52.002;4.688;2024-01-30T16:09:10;13.07;;;9.10;;
47545;SDS011;50104;52.002;4.688;2024-01-30T16:14:11;11.15;;;6.90;;
47545;SDS011;50104;52.002;4.688;2024-01-30T16:19:12;9.18;;;6.88;;
47545;SDS011;50104;52.002;4.688;2024-01-30T16:24:13;9.80;;;6.20;;
47545;SDS011;50104;52.002;4.688;2024-01-30T16:29:14;9.45;;;4.10;;
47545;SDS011;50104;52.002;4.688;2024-01-30T16:34:15;9.57;;;3.80;;
47545;SDS011;50104;52.002;4.688;2024-01-30T16:39:16;9.75;;;3.08;;
47545;SDS011;50104;52.002;4.688;2024-01-30T16:44:17;10.02;;;2.97;;
47545;SDS011;50104;52.002;4.688;2024-01-30T16:49:18;11.68;;;2.95;;
47545;SDS011;50104;52.002;4.688;2024-01-30T16:54:19;5.28;;;2.72;;
47545;SDS011;50104;52.002;4.688;2024-01-30T16:59:19;7.10;;;2.47;;
47545;SDS011;50104;52.002;4.688;2024-01-30T17:04:20;3.97;;;2.00;;
47545;SDS011;50104;52.002;4.688;2024-01-30T17:09:21;8.77;;;2.00;;
47545;SDS011;50104;52.002;4.688;2024-01-30T17:14:22;5.38;;;2.35;;
47545;SDS011;50104;52.002;4.688;2024-01-30T17:19:23;8.05;;;2.72;;
47545;SDS011;50104;52.002;4.688;2024-01-30T17:24:24;11.82;;;3.03;;
47545;SDS011;50104;52.002;4.688;2024-01-30T17:29:25;9.20;;;2.20;;
47545;SDS011;50104;52.002;4.688;2024-01-30T17:34:26;13.48;;;2.53;;
47545;SDS011;50104;52.002;4.688;2024-01-30T17:39:27;10.25;;;2.25;;
47545;SDS011;50104;52.002;4.688;2024-01-30T17:44:28;18.13;;;4.28;;
47545;SDS011;50104;52.002;4.688;2024-01-30T17:49:29;10.10;;;2.38;;
47545;SDS011;50104;52.002;4.688;2024-01-30T17:54:30;12.63;;;1.75;;
47545;SDS011;50104;52.002;4.688;2024-01-30T17:59:30;11.68;;;1.80;;
47545;SDS011;50104;52.002;4.688;2024-01-30T18:04:32;10.73;;;1.90;;
47545;SDS011;50104;52.002;4.688;2024-01-30T18:09:32;8.80;;;1.92;;
47545;SDS011;50104;52.002;4.688;2024-01-30T18:14:33;17.10;;;3.03;;
47545;SDS011;50104;52.002;4.688;2024-01-30T18:19:35;13.95;;;2.42;;
47545;SDS011;50104;52.002;4.688;2024-01-30T18:24:36;13.82;;;2.58;;
47545;SDS011;50104;52.002;4.688;2024-01-30T18:29:38;18.17;;;2.65;;
47545;SDS011;50104;52.002;4.688;2024-01-30T18:34:39;11.95;;;1.92;;
47545;SDS011;50104;52.002;4.688;2024-01-30T18:39:40;15.45;;;2.72;;
47545;SDS011;50104;52.002;4.688;2024-01-30T18:44:43;10.68;;;1.50;;
47545;SDS011;50104;52.002;4.688;2024-01-30T18:49:44;14.05;;;2.45;;
47545;SDS011;50104;52.002;4.688;2024-01-30T18:54:44;8.65;;;1.45;;
47545;SDS011;50104;52.002;4.688;2024-01-30T18:59:45;8.63;;;1.77;;
47545;SDS011;50104;52.002;4.688;2024-01-30T19:04:46;14.50;;;1.90;;
47545;SDS011;50104;52.002;4.688;2024-01-30T19:09:50;7.47;;;1.50;;
47545;SDS011;50104;52.002;4.688;2024-01-30T19:14:52;14.55;;;1.65;;
47545;SDS011;50104;52.002;4.688;2024-01-30T19:19:53;10.95;;;1.60;;
47545;SDS011;50104;52.002;4.688;2024-01-30T19:24:55;12.57;;;2.03;;
47545;SDS011;50104;52.002;4.688;2024-01-30T19:29:56;9.98;;;1.70;;
47545;SDS011;50104;52.002;4.688;2024-01-30T19:34:57;12.13;;;2.00;;
47545;SDS011;50104;52.002;4.688;2024-01-30T19:39:59;6.57;;;2.13;;
47545;SDS011;50104;52.002;4.688;2024-01-30T19:45:00;9.95;;;1.73;;
47545;SDS011;50104;52.002;4.688;2024-01-30T19:50:00;13.88;;;1.65;;
47545;SDS011;50104;52.002;4.688;2024-01-30T19:55:01;7.20;;;1.85;;
47545;SDS011;50104;52.002;4.688;2024-01-30T20:00:03;11.40;;;2.85;;
47545;SDS011;50104;52.002;4.688;2024-01-30T20:05:05;8.73;;;1.65;;
47545;SDS011;50104;52.002;4.688;2024-01-30T20:10:07;13.57;;;2.53;;
47545;SDS011;50104;52.002;4.688;2024-01-30T20:15:08;8.77;;;1.60;;
47545;SDS011;50104;52.002;4.688;2024-01-30T20:20:11;3.97;;;1.20;;
47545;SDS011;50104;52.002;4.688;2024-01-30T20:25:16;8.68;;;0.90;;
47545;SDS011;50104;52.002;4.688;2024-01-30T20:30:17;6.68;;;1.42;;
47545;SDS011;50104;52.002;4.688;2024-01-30T20:35:22;13.68;;;2.35;;
47545;SDS011;50104;52.002;4.688;2024-01-30T20:40:23;7.65;;;1.35;;
47545;SDS011;50104;52.002;4.688;2024-01-30T20:45:23;3.40;;;1.65;;
47545;SDS011;50104;52.002;4.688;2024-01-30T20:50:24;9.55;;;1.20;;
47545;SDS011;50104;52.002;4.688;2024-01-30T20:55:25;4.32;;;1.05;;
47545;SDS011;50104;52.002;4.688;2024-01-30T21:00:26;8.85;;;1.48;;
47545;SDS011;50104;52.002;4.688;2024-01-30T21:05:27;4.50;;;0.80;;
47545;SDS011;50104;52.002;4.688;2024-01-30T21:10:28;4.93;;;1.10;;
47545;SDS011;50104;52.002;4.688;2024-01-30T21:15:28;11.38;;;1.48;;
47545;SDS011;50104;52.002;4.688;2024-01-30T21:20:29;7.57;;;1.55;;
47545;SDS011;50104;52.002;4.688;2024-01-30T21:25:30;10.45;;;3.22;;
47545;SDS011;50104;52.002;4.688;2024-01-30T21:30:31;5.20;;;1.20;;
47545;SDS011;50104;52.002;4.688;2024-01-30T21:35:32;7.50;;;1.00;;
47545;SDS011;50104;52.002;4.688;2024-01-30T21:40:32;5.25;;;1.30;;
47545;SDS011;50104;52.002;4.688;2024-01-30T21:45:33;6.03;;;1.58;;
47545;SDS011;50104;52.002;4.688;2024-01-30T21:50:34;2.10;;;0.90;;
47545;SDS011;50104;52.002;4.688;2024-01-30T21:55:35;7.75;;;2.25;;
47545;SDS011;50104;52.002;4.688;2024-01-30T22:00:36;9.48;;;1.40;;
47545;SDS011;50104;52.002;4.688;2024-01-30T22:05:37;4.97;;;1.30;;
47545;SDS011;50104;52.002;4.688;2024-01-30T22:10:38;5.63;;;1.15;;
47545;SDS011;50104;52.002;4.688;2024-01-30T22:15:39;5.28;;;1.25;;
47545;SDS011;50104;52.002;4.688;2024-01-30T22:20:40;4.30;;;1.00;;
47545;SDS011;50104;52.002;4.688;2024-01-30T22:25:41;4.65;;;1.05;;
47545;SDS011;50104;52.002;4.688;2024-01-30T22:30:42;5.82;;;1.33;;
47545;SDS011;50104;52.002;4.688;2024-01-30T22:35:42;2.08;;;1.00;;
47545;SDS011;50104;52.002;4.688;2024-01-30T22:40:43;4.22;;;1.10;;
47545;SDS011;50104;52.002;4.688;2024-01-30T22:45:44;0.80;;;0.60;;
47545;SDS011;50104;52.002;4.688;2024-01-30T22:50:45;1.55;;;0.70;;
47545;SDS011;50104;52.002;4.688;2024-01-30T22:55:46;1.85;;;0.70;;
47545;SDS011;50104;52.002;4.688;2024-01-30T23:00:46;2.80;;;0.93;;
47545;SDS011;50104;52.002;4.688;2024-01-30T23:05:47;2.17;;;0.70;;
47545;SDS011;50104;52.002;4.688;2024-01-30T23:10:48;1.42;;;0.80;;
47545;SDS011;50104;52.002;4.688;2024-01-30T23:15:49;2.38;;;0.70;;
47545;SDS011;50104;52.002;4.688;2024-01-30T23:20:50;3.30;;;0.90;;
47545;SDS011;50104;52.002;4.688;2024-01-30T23:25:51;2.47;;;0.98;;
47545;SDS011;50104;52.002;4.688;2024-01-30T23:30:52;1.55;;;0.80;;
47545;SDS011;50104;52.002;4.688;2024-01-30T23:35:52;1.25;;;0.68;;
47545;SDS011;50104;52.002;4.688;2024-01-30T23:40:54;3.05;;;0.85;;
47545;SDS011;50104;52.002;4.688;2024-01-30T23:45:56;1.63;;;0.60;;
47545;SDS011;50104;52.002;4.688;2024-01-30T23:50:56;0.80;;;0.70;;
47545;SDS011;50104;52.002;4.688;2024-01-30T23:55:57;1.02;;;0.65;;
